sensor_id;sensor_type;location;lat;lon;timestamp;temperature;humidity
65460;DHT22;52058;49.822;6.754;2023-08-06T00:01:46;14.17;99.99
65460;DHT22;52058;49.822;6.754;2023-08-06T00:04:12;14.13;99.99
65460;DHT22;52058;49.822;6.754;2023-08-06T00:06:39;14.09;99.99
65460;DHT22;52058;49.822;6.754;2023-08-06T00:09:07;14.12;99.99
65460;DHT22;52058;49.822;6.754;2023-08-06T00:11:34;14.17;99.99
65460;DHT22;52058;49.822;6.754;2023-08-06T00:14:00;14.27;99.99
65460;DHT22;52058;49.822;6.754;2023-08-06T00:16:27;14.33;99.99
65460;DHT22;52058;49.822;6.754;2023-08-06T00:18:53;14.44;99.99
65460;DHT22;52058;49.822;6.754;2023-08-06T00:21:20;14.50;99.99
65460;DHT22;52058;49.822;6.754;2023-08-06T00:23:46;14.52;99.99
65460;DHT22;52058;49.822;6.754;2023-08-06T00:26:14;14.57;99.40
65460;DHT22;52058;49.822;6.754;2023-08-06T00:28:41;14.56;98.91
65460;DHT22;52058;49.822;6.754;2023-08-06T00:31:07;14.58;99.69
65460;DHT22;52058;49.822;6.754;2023-08-06T00:33:34;14.54;99.40
65460;DHT22;52058;49.822;6.754;2023-08-06T00:36:01;14.56;99.99
65460;DHT22;52058;49.822;6.754;2023-08-06T00:38:27;14.54;99.99
65460;DHT22;52058;49.822;6.754;2023-08-06T00:40:54;14.61;99.99
65460;DHT22;52058;49.822;6.754;2023-08-06T00:43:22;14.61;99.31
65460;DHT22;52058;49.822;6.754;2023-08-06T00:45:48;14.63;99.59
65460;DHT22;52058;49.822;6.754;2023-08-06T00:48:15;14.63;99.50
65460;DHT22;52058;49.822;6.754;2023-08-06T00:50:42;14.67;99.99
65460;DHT22;52058;49.822;6.754;2023-08-06T00:53:09;14.71;99.99
65460;DHT22;52058;49.822;6.754;2023-08-06T00:55:36;14.72;99.99
65460;DHT22;52058;49.822;6.754;2023-08-06T00:58:02;14.75;99.99
65460;DHT22;52058;49.822;6.754;2023-08-06T01:00:31;14.78;99.99
65460;DHT22;52058;49.822;6.754;2023-08-06T01:02:57;14.82;99.99
65460;DHT22;52058;49.822;6.754;2023-08-06T01:05:24;14.85;99.99
65460;DHT22;52058;49.822;6.754;2023-08-06T01:08:04;14.87;99.99
65460;DHT22;52058;49.822;6.754;2023-08-06T01:10:39;14.88;99.90
65460;DHT22;52058;49.822;6.754;2023-08-06T01:13:16;14.87;98.91
65460;DHT22;52058;49.822;6.754;2023-08-06T01:15:49;14.95;99.99
65460;DHT22;52058;49.822;6.754;2023-08-06T01:18:16;14.96;99.99
65460;DHT22;52058;49.822;6.754;2023-08-06T01:20:46;14.98;99.42
65460;DHT22;52058;49.822;6.754;2023-08-06T01:23:15;14.96;99.31
65460;DHT22;52058;49.822;6.754;2023-08-06T01:25:48;15.00;99.27
65460;DHT22;52058;49.822;6.754;2023-08-06T01:28:18;15.00;97.99
65460;DHT22;52058;49.822;6.754;2023-08-06T01:30:48;15.05;98.30
65460;DHT22;52058;49.822;6.754;2023-08-06T01:33:19;15.05;97.30
65460;DHT22;52058;49.822;6.754;2023-08-06T01:35:49;15.05;97.71
65460;DHT22;52058;49.822;6.754;2023-08-06T01:38:16;15.06;98.04
65460;DHT22;52058;49.822;6.754;2023-08-06T01:40:43;15.03;97.03
65460;DHT22;52058;49.822;6.754;2023-08-06T01:43:10;14.99;97.53
65460;DHT22;52058;49.822;6.754;2023-08-06T01:45:36;14.98;98.00
65460;DHT22;52058;49.822;6.754;2023-08-06T01:48:03;14.98;98.33
65460;DHT22;52058;49.822;6.754;2023-08-06T01:50:30;14.99;97.87
65460;DHT22;52058;49.822;6.754;2023-08-06T01:52:58;14.93;97.82
65460;DHT22;52058;49.822;6.754;2023-08-06T01:55:25;14.93;98.32
65460;DHT22;52058;49.822;6.754;2023-08-06T01:57:51;14.87;98.39
65460;DHT22;52058;49.822;6.754;2023-08-06T02:00:18;14.87;97.95
65460;DHT22;52058;49.822;6.754;2023-08-06T02:02:44;14.84;98.88
65460;DHT22;52058;49.822;6.754;2023-08-06T02:05:11;14.82;98.68
65460;DHT22;52058;49.822;6.754;2023-08-06T02:07:37;14.78;98.30
65460;DHT22;52058;49.822;6.754;2023-08-06T02:10:07;14.81;98.44
65460;DHT22;52058;49.822;6.754;2023-08-06T02:12:34;14.81;98.59
65460;DHT22;52058;49.822;6.754;2023-08-06T02:15:00;14.79;98.35
65460;DHT22;52058;49.822;6.754;2023-08-06T02:17:27;14.79;98.68
65460;DHT22;52058;49.822;6.754;2023-08-06T02:19:53;14.78;98.52
65460;DHT22;52058;49.822;6.754;2023-08-06T02:22:20;14.78;98.45
65460;DHT22;52058;49.822;6.754;2023-08-06T02:24:49;14.77;99.27
65460;DHT22;52058;49.822;6.754;2023-08-06T02:27:17;14.74;98.65
65460;DHT22;52058;49.822;6.754;2023-08-06T02:29:43;14.75;98.91
65460;DHT22;52058;49.822;6.754;2023-08-06T02:32:10;14.75;99.28
65460;DHT22;52058;49.822;6.754;2023-08-06T02:34:36;14.68;99.16
65460;DHT22;52058;49.822;6.754;2023-08-06T02:37:04;14.70;99.32
65460;DHT22;52058;49.822;6.754;2023-08-06T02:39:30;14.64;99.16
65460;DHT22;52058;49.822;6.754;2023-08-06T02:41:58;14.67;99.87
65460;DHT22;52058;49.822;6.754;2023-08-06T02:44:28;14.65;99.57
65460;DHT22;52058;49.822;6.754;2023-08-06T02:46:54;14.61;99.62
65460;DHT22;52058;49.822;6.754;2023-08-06T02:49:21;14.63;99.77
65460;DHT22;52058;49.822;6.754;2023-08-06T02:51:48;14.63;99.99
65460;DHT22;52058;49.822;6.754;2023-08-06T02:54:14;14.64;99.70
65460;DHT22;52058;49.822;6.754;2023-08-06T02:56:43;14.61;99.47
65460;DHT22;52058;49.822;6.754;2023-08-06T02:59:10;14.63;99.57
65460;DHT22;52058;49.822;6.754;2023-08-06T03:01:38;14.61;99.34
65460;DHT22;52058;49.822;6.754;2023-08-06T03:04:05;14.57;99.33
65460;DHT22;52058;49.822;6.754;2023-08-06T03:06:32;14.58;99.75
65460;DHT22;52058;49.822;6.754;2023-08-06T03:08:59;14.58;99.78
65460;DHT22;52058;49.822;6.754;2023-08-06T03:11:25;14.54;99.50
65460;DHT22;52058;49.822;6.754;2023-08-06T03:13:52;14.52;99.71
65460;DHT22;52058;49.822;6.754;2023-08-06T03:16:19;14.48;99.99
65460;DHT22;52058;49.822;6.754;2023-08-06T03:18:47;14.51;99.98
65460;DHT22;52058;49.822;6.754;2023-08-06T03:21:13;14.45;99.43
65460;DHT22;52058;49.822;6.754;2023-08-06T03:23:40;14.44;99.55
65460;DHT22;52058;49.822;6.754;2023-08-06T03:26:07;14.48;99.99
65460;DHT22;52058;49.822;6.754;2023-08-06T03:28:34;14.44;99.99
65460;DHT22;52058;49.822;6.754;2023-08-06T03:31:01;14.40;99.92
65460;DHT22;52058;49.822;6.754;2023-08-06T03:33:28;14.45;99.99
65460;DHT22;52058;49.822;6.754;2023-08-06T03:35:56;14.47;99.96
65460;DHT22;52058;49.822;6.754;2023-08-06T03:38:23;14.45;99.50
65460;DHT22;52058;49.822;6.754;2023-08-06T03:40:49;14.40;99.92
65460;DHT22;52058;49.822;6.754;2023-08-06T03:43:16;14.42;99.87
65460;DHT22;52058;49.822;6.754;2023-08-06T03:45:43;14.37;99.99
65460;DHT22;52058;49.822;6.754;2023-08-06T03:48:09;14.38;99.99
65460;DHT22;52058;49.822;6.754;2023-08-06T03:50:36;14.40;99.99
65460;DHT22;52058;49.822;6.754;2023-08-06T03:53:04;14.38;99.99
65460;DHT22;52058;49.822;6.754;2023-08-06T03:55:31;14.42;99.99
65460;DHT22;52058;49.822;6.754;2023-08-06T03:57:58;14.41;99.82
65460;DHT22;52058;49.822;6.754;2023-08-06T04:00:24;14.41;99.60
65460;DHT22;52058;49.822;6.754;2023-08-06T04:02:51;14.41;99.81
65460;DHT22;52058;49.822;6.754;2023-08-06T04:05:18;14.40;99.94
65460;DHT22;52058;49.822;6.754;2023-08-06T04:07:44;14.41;99.41
65460;DHT22;52058;49.822;6.754;2023-08-06T04:10:12;14.44;99.28
65460;DHT22;52058;49.822;6.754;2023-08-06T04:12:39;14.45;99.75
65460;DHT22;52058;49.822;6.754;2023-08-06T04:15:06;14.48;99.53
65460;DHT22;52058;49.822;6.754;2023-08-06T04:17:33;14.48;99.99
65460;DHT22;52058;49.822;6.754;2023-08-06T04:19:59;14.47;99.99
65460;DHT22;52058;49.822;6.754;2023-08-06T04:22:27;14.52;99.99
65460;DHT22;52058;49.822;6.754;2023-08-06T04:24:54;14.50;99.96
65460;DHT22;52058;49.822;6.754;2023-08-06T04:27:22;14.51;99.99
65460;DHT22;52058;49.822;6.754;2023-08-06T04:29:48;14.54;99.21
65460;DHT22;52058;49.822;6.754;2023-08-06T04:32:15;14.54;99.70
65460;DHT22;52058;49.822;6.754;2023-08-06T04:34:42;14.56;99.83
65460;DHT22;52058;49.822;6.754;2023-08-06T04:37:09;14.56;99.38
65460;DHT22;52058;49.822;6.754;2023-08-06T04:39:36;14.57;99.71
65460;DHT22;52058;49.822;6.754;2023-08-06T04:42:03;14.58;99.52
65460;DHT22;52058;49.822;6.754;2023-08-06T04:44:31;14.61;99.83
65460;DHT22;52058;49.822;6.754;2023-08-06T04:46:57;14.58;99.77
65460;DHT22;52058;49.822;6.754;2023-08-06T04:49:25;14.67;99.79
65460;DHT22;52058;49.822;6.754;2023-08-06T04:51:51;14.67;99.69
65460;DHT22;52058;49.822;6.754;2023-08-06T04:54:18;14.68;99.32
65460;DHT22;52058;49.822;6.754;2023-08-06T04:56:44;14.72;99.72
65460;DHT22;52058;49.822;6.754;2023-08-06T04:59:11;14.70;99.50
65460;DHT22;52058;49.822;6.754;2023-08-06T05:01:39;14.74;99.54
65460;DHT22;52058;49.822;6.754;2023-08-06T05:04:05;14.74;99.18
65460;DHT22;52058;49.822;6.754;2023-08-06T05:06:32;14.75;99.26
65460;DHT22;52058;49.822;6.754;2023-08-06T05:08:58;14.79;99.00
65460;DHT22;52058;49.822;6.754;2023-08-06T05:11:25;14.82;98.52
65460;DHT22;52058;49.822;6.754;2023-08-06T05:13:51;14.87;98.74
65460;DHT22;52058;49.822;6.754;2023-08-06T05:16:18;14.89;98.16
65460;DHT22;52058;49.822;6.754;2023-08-06T05:18:46;14.91;97.90
65460;DHT22;52058;49.822;6.754;2023-08-06T05:21:12;14.92;97.98
65460;DHT22;52058;49.822;6.754;2023-08-06T05:23:39;14.99;98.26
65460;DHT22;52058;49.822;6.754;2023-08-06T05:26:05;15.00;97.90
65460;DHT22;52058;49.822;6.754;2023-08-06T05:28:32;15.06;97.79
65460;DHT22;52058;49.822;6.754;2023-08-06T05:30:58;15.06;97.50
65460;DHT22;52058;49.822;6.754;2023-08-06T05:33:28;15.12;97.58
65460;DHT22;52058;49.822;6.754;2023-08-06T05:35:56;15.19;97.03
65460;DHT22;52058;49.822;6.754;2023-08-06T05:38:23;15.28;97.30
65460;DHT22;52058;49.822;6.754;2023-08-06T05:40:49;15.32;97.20
65460;DHT22;52058;49.822;6.754;2023-08-06T05:43:16;15.36;97.01
65460;DHT22;52058;49.822;6.754;2023-08-06T05:45:44;15.40;96.56
65460;DHT22;52058;49.822;6.754;2023-08-06T05:48:10;15.53;96.40
65460;DHT22;52058;49.822;6.754;2023-08-06T05:50:37;15.67;96.15
65460;DHT22;52058;49.822;6.754;2023-08-06T05:53:05;15.70;96.35
65460;DHT22;52058;49.822;6.754;2023-08-06T05:55:32;15.71;95.45
65460;DHT22;52058;49.822;6.754;2023-08-06T05:57:58;15.71;95.77
65460;DHT22;52058;49.822;6.754;2023-08-06T06:00:25;15.67;95.18
65460;DHT22;52058;49.822;6.754;2023-08-06T06:02:51;15.74;95.17
65460;DHT22;52058;49.822;6.754;2023-08-06T06:05:18;15.80;95.02
65460;DHT22;52058;49.822;6.754;2023-08-06T06:07:44;15.84;94.48
65460;DHT22;52058;49.822;6.754;2023-08-06T06:10:12;15.84;94.88
65460;DHT22;52058;49.822;6.754;2023-08-06T06:12:40;15.78;94.14
65460;DHT22;52058;49.822;6.754;2023-08-06T06:15:07;15.77;94.47
65460;DHT22;52058;49.822;6.754;2023-08-06T06:17:34;15.78;94.47
65460;DHT22;52058;49.822;6.754;2023-08-06T06:20:00;15.78;94.25
65460;DHT22;52058;49.822;6.754;2023-08-06T06:22:29;15.81;94.66
65460;DHT22;52058;49.822;6.754;2023-08-06T06:24:55;15.83;93.80
65460;DHT22;52058;49.822;6.754;2023-08-06T06:27:23;15.86;93.54
65460;DHT22;52058;49.822;6.754;2023-08-06T06:29:50;15.80;94.31
65460;DHT22;52058;49.822;6.754;2023-08-06T06:32:17;15.71;94.38
65460;DHT22;52058;49.822;6.754;2023-08-06T06:34:44;15.63;94.88
65460;DHT22;52058;49.822;6.754;2023-08-06T06:37:10;15.57;95.06
65460;DHT22;52058;49.822;6.754;2023-08-06T06:39:37;15.53;95.81
65460;DHT22;52058;49.822;6.754;2023-08-06T06:42:04;15.46;94.77
65460;DHT22;52058;49.822;6.754;2023-08-06T06:44:32;15.47;95.26
65460;DHT22;52058;49.822;6.754;2023-08-06T06:46:59;15.57;95.05
65460;DHT22;52058;49.822;6.754;2023-08-06T06:49:25;15.66;94.83
65460;DHT22;52058;49.822;6.754;2023-08-06T06:51:52;15.67;94.80
65460;DHT22;52058;49.822;6.754;2023-08-06T06:54:18;15.67;95.03
65460;DHT22;52058;49.822;6.754;2023-08-06T06:56:45;15.74;94.23
65460;DHT22;52058;49.822;6.754;2023-08-06T06:59:12;15.81;94.40
65460;DHT22;52058;49.822;6.754;2023-08-06T07:01:39;15.81;93.42
65460;DHT22;52058;49.822;6.754;2023-08-06T07:04:06;15.74;93.39
65460;DHT22;52058;49.822;6.754;2023-08-06T07:06:32;15.77;93.20
65460;DHT22;52058;49.822;6.754;2023-08-06T07:08:59;15.70;92.99
65460;DHT22;52058;49.822;6.754;2023-08-06T07:11:26;15.70;92.57
65460;DHT22;52058;49.822;6.754;2023-08-06T07:13:56;15.70;92.71
65460;DHT22;52058;49.822;6.754;2023-08-06T07:16:23;15.68;92.96
65460;DHT22;52058;49.822;6.754;2023-08-06T07:18:53;15.67;92.32
65460;DHT22;52058;49.822;6.754;2023-08-06T07:21:20;15.67;91.69
65460;DHT22;52058;49.822;6.754;2023-08-06T07:23:47;15.84;91.26
65460;DHT22;52058;49.822;6.754;2023-08-06T07:26:14;15.94;90.38
65460;DHT22;52058;49.822;6.754;2023-08-06T07:28:41;16.07;90.29
65460;DHT22;52058;49.822;6.754;2023-08-06T07:31:07;16.11;89.54
65460;DHT22;52058;49.822;6.754;2023-08-06T07:33:34;16.08;89.07
65460;DHT22;52058;49.822;6.754;2023-08-06T07:36:09;16.12;90.40
65460;DHT22;52058;49.822;6.754;2023-08-06T07:38:36;16.09;90.98
65460;DHT22;52058;49.822;6.754;2023-08-06T07:41:03;15.86;92.13
65460;DHT22;52058;49.822;6.754;2023-08-06T07:43:30;15.74;93.48
65460;DHT22;52058;49.822;6.754;2023-08-06T07:45:57;15.59;94.64
65460;DHT22;52058;49.822;6.754;2023-08-06T07:48:24;15.42;94.93
65460;DHT22;52058;49.822;6.754;2023-08-06T07:50:51;15.33;93.47
65460;DHT22;52058;49.822;6.754;2023-08-06T07:53:20;15.40;94.73
65460;DHT22;52058;49.822;6.754;2023-08-06T07:55:49;15.36;93.34
65460;DHT22;52058;49.822;6.754;2023-08-06T07:58:16;15.49;91.26
65460;DHT22;52058;49.822;6.754;2023-08-06T08:00:42;15.66;90.54
65460;DHT22;52058;49.822;6.754;2023-08-06T08:03:10;15.76;90.77
65460;DHT22;52058;49.822;6.754;2023-08-06T08:05:37;15.50;90.44
65460;DHT22;52058;49.822;6.754;2023-08-06T08:08:04;15.54;91.12
65460;DHT22;52058;49.822;6.754;2023-08-06T08:10:32;15.44;91.82
65460;DHT22;52058;49.822;6.754;2023-08-06T08:12:59;15.36;90.53
65460;DHT22;52058;49.822;6.754;2023-08-06T08:15:28;15.28;90.80
65460;DHT22;52058;49.822;6.754;2023-08-06T08:17:55;15.29;90.93
65460;DHT22;52058;49.822;6.754;2023-08-06T08:20:21;15.23;91.70
65460;DHT22;52058;49.822;6.754;2023-08-06T08:22:48;15.28;92.05
65460;DHT22;52058;49.822;6.754;2023-08-06T08:25:15;15.28;91.88
65460;DHT22;52058;49.822;6.754;2023-08-06T08:27:43;15.33;91.81
65460;DHT22;52058;49.822;6.754;2023-08-06T08:30:10;15.33;91.37
65460;DHT22;52058;49.822;6.754;2023-08-06T08:32:36;15.35;91.67
65460;DHT22;52058;49.822;6.754;2023-08-06T08:35:04;15.47;91.52
65460;DHT22;52058;49.822;6.754;2023-08-06T08:37:30;15.60;92.42
65460;DHT22;52058;49.822;6.754;2023-08-06T08:39:57;15.60;92.64
65460;DHT22;52058;49.822;6.754;2023-08-06T08:42:23;15.68;92.85
65460;DHT22;52058;49.822;6.754;2023-08-06T08:44:52;15.83;92.25
65460;DHT22;52058;49.822;6.754;2023-08-06T08:47:20;16.01;91.21
65460;DHT22;52058;49.822;6.754;2023-08-06T08:49:47;16.24;90.38
65460;DHT22;52058;49.822;6.754;2023-08-06T08:52:16;16.48;89.82
65460;DHT22;52058;49.822;6.754;2023-08-06T08:54:43;16.77;88.76
65460;DHT22;52058;49.822;6.754;2023-08-06T08:57:10;16.75;87.92
65460;DHT22;52058;49.822;6.754;2023-08-06T08:59:37;16.93;87.01
65460;DHT22;52058;49.822;6.754;2023-08-06T09:02:05;17.08;87.60
65460;DHT22;52058;49.822;6.754;2023-08-06T09:04:44;17.03;88.31
65460;DHT22;52058;49.822;6.754;2023-08-06T09:07:53;17.18;87.38
65460;DHT22;52058;49.822;6.754;2023-08-06T09:10:47;17.31;86.84
65460;DHT22;52058;49.822;6.754;2023-08-06T09:13:51;17.28;86.92
65460;DHT22;52058;49.822;6.754;2023-08-06T09:19:11;17.23;84.93
65460;DHT22;52058;49.822;6.754;2023-08-06T09:21:40;17.04;86.41
65460;DHT22;52058;49.822;6.754;2023-08-06T09:24:14;16.79;87.98
65460;DHT22;52058;49.822;6.754;2023-08-06T09:26:42;16.83;86.47
65460;DHT22;52058;49.822;6.754;2023-08-06T09:29:10;16.84;85.75
65460;DHT22;52058;49.822;6.754;2023-08-06T09:31:40;16.96;86.34
65460;DHT22;52058;49.822;6.754;2023-08-06T09:34:11;16.88;86.71
65460;DHT22;52058;49.822;6.754;2023-08-06T09:36:40;16.91;85.80
65460;DHT22;52058;49.822;6.754;2023-08-06T09:39:13;16.96;83.84
65460;DHT22;52058;49.822;6.754;2023-08-06T09:41:40;17.03;83.69
65460;DHT22;52058;49.822;6.754;2023-08-06T09:44:15;17.36;84.01
65460;DHT22;52058;49.822;6.754;2023-08-06T09:46:42;17.39;81.53
65460;DHT22;52058;49.822;6.754;2023-08-06T09:49:08;17.82;82.46
65460;DHT22;52058;49.822;6.754;2023-08-06T09:51:37;18.13;80.95
65460;DHT22;52058;49.822;6.754;2023-08-06T09:54:05;18.48;80.12
65460;DHT22;52058;49.822;6.754;2023-08-06T09:56:33;18.43;79.29
65460;DHT22;52058;49.822;6.754;2023-08-06T09:59:04;18.38;78.76
65460;DHT22;52058;49.822;6.754;2023-08-06T10:01:31;18.37;78.88
65460;DHT22;52058;49.822;6.754;2023-08-06T10:03:59;18.30;79.49
65460;DHT22;52058;49.822;6.754;2023-08-06T10:08:54;18.33;78.98
65460;DHT22;52058;49.822;6.754;2023-08-06T10:11:22;18.27;78.39
65460;DHT22;52058;49.822;6.754;2023-08-06T10:13:50;18.23;78.19
65460;DHT22;52058;49.822;6.754;2023-08-06T10:16:18;18.16;77.97
65460;DHT22;52058;49.822;6.754;2023-08-06T10:18:47;18.37;78.11
65460;DHT22;52058;49.822;6.754;2023-08-06T10:21:15;18.14;77.72
65460;DHT22;52058;49.822;6.754;2023-08-06T10:23:42;18.33;77.87
65460;DHT22;52058;49.822;6.754;2023-08-06T10:26:10;17.97;78.18
65460;DHT22;52058;49.822;6.754;2023-08-06T10:28:37;17.97;79.13
65460;DHT22;52058;49.822;6.754;2023-08-06T10:31:05;17.83;80.02
65460;DHT22;52058;49.822;6.754;2023-08-06T10:33:42;17.94;79.56
65460;DHT22;52058;49.822;6.754;2023-08-06T10:36:10;18.10;79.82
65460;DHT22;52058;49.822;6.754;2023-08-06T10:38:44;17.79;80.71
65460;DHT22;52058;49.822;6.754;2023-08-06T10:41:18;17.83;80.74
65460;DHT22;52058;49.822;6.754;2023-08-06T10:43:47;18.31;79.95
65460;DHT22;52058;49.822;6.754;2023-08-06T10:46:22;18.06;79.96
65460;DHT22;52058;49.822;6.754;2023-08-06T10:48:49;17.97;81.35
65460;DHT22;52058;49.822;6.754;2023-08-06T10:51:15;18.26;81.30
65460;DHT22;52058;49.822;6.754;2023-08-06T10:53:43;18.12;80.89
65460;DHT22;52058;49.822;6.754;2023-08-06T10:56:13;17.99;81.33
65460;DHT22;52058;49.822;6.754;2023-08-06T10:58:41;18.26;81.75
65460;DHT22;52058;49.822;6.754;2023-08-06T11:01:08;17.92;81.04
65460;DHT22;52058;49.822;6.754;2023-08-06T11:03:35;17.49;81.31
65460;DHT22;52058;49.822;6.754;2023-08-06T11:06:02;17.41;80.92
65460;DHT22;52058;49.822;6.754;2023-08-06T11:08:34;17.45;80.38
65460;DHT22;52058;49.822;6.754;2023-08-06T11:11:11;17.44;81.03
65460;DHT22;52058;49.822;6.754;2023-08-06T11:13:38;17.49;81.20
65460;DHT22;52058;49.822;6.754;2023-08-06T11:16:06;17.38;81.22
65460;DHT22;52058;49.822;6.754;2023-08-06T11:18:33;17.69;81.06
65460;DHT22;52058;49.822;6.754;2023-08-06T11:21:00;17.87;81.11
65460;DHT22;52058;49.822;6.754;2023-08-06T11:23:27;17.87;78.59
65460;DHT22;52058;49.822;6.754;2023-08-06T11:25:55;17.87;79.52
65460;DHT22;52058;49.822;6.754;2023-08-06T11:28:21;18.00;79.07
65460;DHT22;52058;49.822;6.754;2023-08-06T11:30:48;17.76;79.20
65460;DHT22;52058;49.822;6.754;2023-08-06T11:33:20;17.82;80.25
65460;DHT22;52058;49.822;6.754;2023-08-06T11:35:47;17.78;79.95
65460;DHT22;52058;49.822;6.754;2023-08-06T11:38:14;17.83;80.40
65460;DHT22;52058;49.822;6.754;2023-08-06T11:40:43;18.12;80.70
65460;DHT22;52058;49.822;6.754;2023-08-06T11:43:10;18.14;78.43
65460;DHT22;52058;49.822;6.754;2023-08-06T11:45:36;18.23;78.07
65460;DHT22;52058;49.822;6.754;2023-08-06T11:48:03;18.52;76.32
65460;DHT22;52058;49.822;6.754;2023-08-06T11:50:36;18.75;74.81
65460;DHT22;52058;49.822;6.754;2023-08-06T11:53:02;19.12;76.19
65460;DHT22;52058;49.822;6.754;2023-08-06T11:55:30;19.05;75.06
65460;DHT22;52058;49.822;6.754;2023-08-06T11:57:58;18.94;73.89
65460;DHT22;52058;49.822;6.754;2023-08-06T12:00:25;19.19;73.29
65460;DHT22;52058;49.822;6.754;2023-08-06T12:02:52;18.84;73.60
65460;DHT22;52058;49.822;6.754;2023-08-06T12:05:21;19.66;72.68
65460;DHT22;52058;49.822;6.754;2023-08-06T12:07:51;19.92;71.55
65460;DHT22;52058;49.822;6.754;2023-08-06T12:10:19;19.87;70.35
65460;DHT22;52058;49.822;6.754;2023-08-06T12:12:46;20.11;70.33
65460;DHT22;52058;49.822;6.754;2023-08-06T12:15:12;20.29;70.10
65460;DHT22;52058;49.822;6.754;2023-08-06T12:17:39;20.30;69.33
65460;DHT22;52058;49.822;6.754;2023-08-06T12:20:07;19.78;69.61
65460;DHT22;52058;49.822;6.754;2023-08-06T12:22:34;20.29;69.38
65460;DHT22;52058;49.822;6.754;2023-08-06T12:25:03;20.66;68.06
65460;DHT22;52058;49.822;6.754;2023-08-06T12:27:32;20.67;67.42
65460;DHT22;52058;49.822;6.754;2023-08-06T12:29:58;20.90;67.60
65460;DHT22;52058;49.822;6.754;2023-08-06T12:32:25;20.86;66.69
65460;DHT22;52058;49.822;6.754;2023-08-06T12:34:52;20.73;67.36
65460;DHT22;52058;49.822;6.754;2023-08-06T12:37:18;20.45;68.69
65460;DHT22;52058;49.822;6.754;2023-08-06T12:39:45;20.35;68.62
65460;DHT22;52058;49.822;6.754;2023-08-06T12:42:13;20.28;68.62
65460;DHT22;52058;49.822;6.754;2023-08-06T12:44:40;20.28;68.68
65460;DHT22;52058;49.822;6.754;2023-08-06T12:47:06;21.12;67.70
65460;DHT22;52058;49.822;6.754;2023-08-06T12:49:33;21.86;65.05
65460;DHT22;52058;49.822;6.754;2023-08-06T12:52:00;21.32;64.94
65460;DHT22;52058;49.822;6.754;2023-08-06T12:54:27;21.34;65.92
65460;DHT22;52058;49.822;6.754;2023-08-06T12:56:54;21.00;66.84
65460;DHT22;52058;49.822;6.754;2023-08-06T12:59:22;20.66;67.41
65460;DHT22;52058;49.822;6.754;2023-08-06T13:01:48;19.57;70.14
65460;DHT22;52058;49.822;6.754;2023-08-06T13:04:15;19.09;73.43
65460;DHT22;52058;49.822;6.754;2023-08-06T13:06:42;18.51;79.06
65460;DHT22;52058;49.822;6.754;2023-08-06T13:09:08;19.06;79.12
65460;DHT22;52058;49.822;6.754;2023-08-06T13:11:35;19.26;78.37
65460;DHT22;52058;49.822;6.754;2023-08-06T13:14:07;19.01;76.24
65460;DHT22;52058;49.822;6.754;2023-08-06T13:16:36;18.58;78.78
65460;DHT22;52058;49.822;6.754;2023-08-06T13:19:04;18.54;77.11
65460;DHT22;52058;49.822;6.754;2023-08-06T13:21:35;18.61;75.92
65460;DHT22;52058;49.822;6.754;2023-08-06T13:24:02;18.81;77.74
65460;DHT22;52058;49.822;6.754;2023-08-06T13:26:29;18.55;77.85
65460;DHT22;52058;49.822;6.754;2023-08-06T13:28:56;18.40;78.32
65460;DHT22;52058;49.822;6.754;2023-08-06T13:31:23;17.92;82.61
65460;DHT22;52058;49.822;6.754;2023-08-06T13:33:51;17.52;82.97
65460;DHT22;52058;49.822;6.754;2023-08-06T13:36:19;16.90;84.44
65460;DHT22;52058;49.822;6.754;2023-08-06T13:38:46;16.56;86.03
65460;DHT22;52058;49.822;6.754;2023-08-06T13:41:14;16.24;85.90
65460;DHT22;52058;49.822;6.754;2023-08-06T13:43:41;15.97;89.35
65460;DHT22;52058;49.822;6.754;2023-08-06T13:46:08;15.96;89.95
65460;DHT22;52058;49.822;6.754;2023-08-06T13:48:39;15.93;90.46
65460;DHT22;52058;49.822;6.754;2023-08-06T13:51:07;16.04;89.98
65460;DHT22;52058;49.822;6.754;2023-08-06T13:53:33;16.24;89.79
65460;DHT22;52058;49.822;6.754;2023-08-06T13:56:00;17.17;86.74
65460;DHT22;52058;49.822;6.754;2023-08-06T13:58:26;18.65;82.12
65460;DHT22;52058;49.822;6.754;2023-08-06T14:00:53;18.58;81.37
65460;DHT22;52058;49.822;6.754;2023-08-06T14:03:20;18.65;80.65
65460;DHT22;52058;49.822;6.754;2023-08-06T14:05:46;18.07;81.89
65460;DHT22;52058;49.822;6.754;2023-08-06T14:08:15;18.57;80.62
65460;DHT22;52058;49.822;6.754;2023-08-06T14:10:43;19.24;78.04
65460;DHT22;52058;49.822;6.754;2023-08-06T14:13:10;19.53;77.13
65460;DHT22;52058;49.822;6.754;2023-08-06T14:15:37;19.61;77.79
65460;DHT22;52058;49.822;6.754;2023-08-06T14:18:05;19.59;77.76
65460;DHT22;52058;49.822;6.754;2023-08-06T14:20:32;19.12;75.56
65460;DHT22;52058;49.822;6.754;2023-08-06T14:22:59;18.50;76.73
65460;DHT22;52058;49.822;6.754;2023-08-06T14:25:28;18.75;79.50
65460;DHT22;52058;49.822;6.754;2023-08-06T14:27:54;18.09;77.44
65460;DHT22;52058;49.822;6.754;2023-08-06T14:30:21;18.10;78.71
65460;DHT22;52058;49.822;6.754;2023-08-06T14:32:47;17.92;78.44
65460;DHT22;52058;49.822;6.754;2023-08-06T14:35:14;17.78;79.27
65460;DHT22;52058;49.822;6.754;2023-08-06T14:37:41;17.65;78.93
65460;DHT22;52058;49.822;6.754;2023-08-06T14:40:08;17.58;80.17
65460;DHT22;52058;49.822;6.754;2023-08-06T14:42:36;17.75;78.78
65460;DHT22;52058;49.822;6.754;2023-08-06T14:45:04;17.71;79.82
65460;DHT22;52058;49.822;6.754;2023-08-06T14:47:30;17.65;79.64
65460;DHT22;52058;49.822;6.754;2023-08-06T14:49:57;17.27;80.44
65460;DHT22;52058;49.822;6.754;2023-08-06T14:52:23;17.00;80.31
65460;DHT22;52058;49.822;6.754;2023-08-06T14:54:50;16.97;82.18
65460;DHT22;52058;49.822;6.754;2023-08-06T14:57:17;16.94;81.65
65460;DHT22;52058;49.822;6.754;2023-08-06T14:59:45;17.13;81.82
65460;DHT22;52058;49.822;6.754;2023-08-06T15:02:12;16.87;81.98
65460;DHT22;52058;49.822;6.754;2023-08-06T15:04:38;16.73;81.95
65460;DHT22;52058;49.822;6.754;2023-08-06T15:07:05;16.49;81.54
65460;DHT22;52058;49.822;6.754;2023-08-06T15:09:31;16.46;83.07
65460;DHT22;52058;49.822;6.754;2023-08-06T15:11:58;16.63;82.87
65460;DHT22;52058;49.822;6.754;2023-08-06T15:14:25;16.51;83.42
65460;DHT22;52058;49.822;6.754;2023-08-06T15:16:53;16.17;86.81
65460;DHT22;52058;49.822;6.754;2023-08-06T15:19:22;16.12;87.00
65460;DHT22;52058;49.822;6.754;2023-08-06T15:21:48;15.91;87.36
65460;DHT22;52058;49.822;6.754;2023-08-06T15:24:15;16.38;86.36
65460;DHT22;52058;49.822;6.754;2023-08-06T15:26:41;16.73;85.22
65460;DHT22;52058;49.822;6.754;2023-08-06T15:29:08;16.30;84.86
65460;DHT22;52058;49.822;6.754;2023-08-06T15:31:36;16.41;83.81
65460;DHT22;52058;49.822;6.754;2023-08-06T15:34:04;16.38;84.55
65460;DHT22;52058;49.822;6.754;2023-08-06T15:36:32;16.35;84.15
65460;DHT22;52058;49.822;6.754;2023-08-06T15:38:58;16.28;85.33